sensor_id;sensor_type;location;lat;lon;timestamp;P1;durP1;ratioP1;P2;durP2;ratioP2
85738;SDS011;76182;41.498;22.100;2024-01-30T10:51:26;5.13;;;3.05;;
85738;SDS011;76182;41.498;22.100;2024-01-30T10:53:52;7.57;;;2.90;;
85738;SDS011;76182;41.498;22.100;2024-01-30T10:56:22;4.03;;;2.28;;
85738;SDS011;76182;41.498;22.100;2024-01-30T10:58:49;2.50;;;1.95;;
85738;SDS011;76182;41.498;22.100;2024-01-30T11:01:16;4.07;;;2.55;;
85738;SDS011;76182;41.498;22.100;2024-01-30T11:03:42;5.53;;;2.50;;
85738;SDS011;76182;41.498;22.100;2024-01-30T11:06:10;6.10;;;3.05;;
85738;SDS011;76182;41.498;22.100;2024-01-30T11:08:39;4.90;;;2.60;;
85738;SDS011;76182;41.498;22.100;2024-01-30T11:11:07;5.63;;;2.90;;
85738;SDS011;76182;41.498;22.100;2024-01-30T11:13:34;4.18;;;2.35;;
85738;SDS011;76182;41.498;22.100;2024-01-30T11:16:00;4.20;;;1.90;;
85738;SDS011;76182;41.498;22.100;2024-01-30T11:18:30;3.65;;;1.70;;
85738;SDS011;76182;41.498;22.100;2024-01-30T11:20:57;4.43;;;2.08;;
85738;SDS011;76182;41.498;22.100;2024-01-30T11:23:23;5.97;;;2.20;;
85738;SDS011;76182;41.498;22.100;2024-01-30T11:25:52;2.13;;;1.55;;
85738;SDS011;76182;41.498;22.100;2024-01-30T11:28:18;6.47;;;2.20;;
85738;SDS011;76182;41.498;22.100;2024-01-30T11:30:43;3.13;;;2.00;;
85738;SDS011;76182;41.498;22.100;2024-01-30T11:35:42;6.38;;;3.50;;
85738;SDS011;76182;41.498;22.100;2024-01-30T11:38:09;4.82;;;2.20;;
85738;SDS011;76182;41.498;22.100;2024-01-30T11:40:37;9.88;;;2.88;;
85738;SDS011;76182;41.498;22.100;2024-01-30T11:43:04;7.18;;;3.05;;
85738;SDS011;76182;41.498;22.100;2024-01-30T11:45:31;3.65;;;1.95;;
85738;SDS011;76182;41.498;22.100;2024-01-30T11:47:57;3.75;;;2.08;;
85738;SDS011;76182;41.498;22.100;2024-01-30T11:50:29;7.72;;;2.47;;
85738;SDS011;76182;41.498;22.100;2024-01-30T11:52:55;4.82;;;2.10;;
85738;SDS011;76182;41.498;22.100;2024-01-30T11:55:23;5.18;;;2.33;;
85738;SDS011;76182;41.498;22.100;2024-01-30T11:57:49;4.53;;;2.13;;
85738;SDS011;76182;41.498;22.100;2024-01-30T12:00:14;5.85;;;2.05;;
85738;SDS011;76182;41.498;22.100;2024-01-30T12:02:42;7.70;;;2.20;;
85738;SDS011;76182;41.498;22.100;2024-01-30T12:05:08;3.83;;;1.90;;
85738;SDS011;76182;41.498;22.100;2024-01-30T12:07:36;3.97;;;2.33;;
85738;SDS011;76182;41.498;22.100;2024-01-30T12:10:02;6.35;;;2.92;;
85738;SDS011;76182;41.498;22.100;2024-01-30T12:12:29;10.45;;;3.10;;
85738;SDS011;76182;41.498;22.100;2024-01-30T12:14:55;3.42;;;1.90;;
85738;SDS011;76182;41.498;22.100;2024-01-30T12:17:30;5.07;;;2.33;;
85738;SDS011;76182;41.498;22.100;2024-01-30T12:20:10;8.73;;;2.53;;
85738;SDS011;76182;41.498;22.100;2024-01-30T12:22:40;6.70;;;2.38;;
85738;SDS011;76182;41.498;22.100;2024-01-30T12:25:13;3.35;;;1.98;;
85738;SDS011;76182;41.498;22.100;2024-01-30T12:27:42;3.22;;;2.00;;
85738;SDS011;76182;41.498;22.100;2024-01-30T12:30:12;3.28;;;2.10;;
85738;SDS011;76182;41.498;22.100;2024-01-30T12:32:40;8.60;;;2.60;;
85738;SDS011;76182;41.498;22.100;2024-01-30T12:35:12;3.85;;;2.28;;
85738;SDS011;76182;41.498;22.100;2024-01-30T12:37:40;9.68;;;2.28;;
85738;SDS011;76182;41.498;22.100;2024-01-30T12:40:07;5.28;;;2.38;;
85738;SDS011;76182;41.498;22.100;2024-01-30T12:42:34;5.95;;;2.38;;
85738;SDS011;76182;41.498;22.100;2024-01-30T12:45:02;3.45;;;2.20;;
85738;SDS011;76182;41.498;22.100;2024-01-30T12:47:30;7.78;;;2.50;;
85738;SDS011;76182;41.498;22.100;2024-01-30T12:49:57;5.03;;;2.30;;
85738;SDS011;76182;41.498;22.100;2024-01-30T12:52:23;5.43;;;2.50;;
85738;SDS011;76182;41.498;22.100;2024-01-30T12:54:49;5.82;;;2.50;;
85738;SDS011;76182;41.498;22.100;2024-01-30T12:57:15;3.55;;;2.03;;
85738;SDS011;76182;41.498;22.100;2024-01-30T12:59:41;5.18;;;2.10;;
85738;SDS011;76182;41.498;22.100;2024-01-30T13:02:07;5.60;;;2.35;;
85738;SDS011;76182;41.498;22.100;2024-01-30T13:04:34;12.23;;;3.20;;
85738;SDS011;76182;41.498;22.100;2024-01-30T13:07:00;3.63;;;2.22;;
85738;SDS011;76182;41.498;22.100;2024-01-30T13:09:29;11.02;;;2.83;;
85738;SDS011;76182;41.498;22.100;2024-01-30T13:11:55;10.65;;;3.15;;
85738;SDS011;76182;41.498;22.100;2024-01-30T13:14:21;10.73;;;2.17;;
85738;SDS011;76182;41.498;22.100;2024-01-30T13:16:47;9.70;;;2.33;;
85738;SDS011;76182;41.498;22.100;2024-01-30T13:19:12;8.23;;;2.13;;
85738;SDS011;76182;41.498;22.100;2024-01-30T13:21:38;9.10;;;2.30;;
85738;SDS011;76182;41.498;22.100;2024-01-30T13:24:03;4.70;;;2.55;;
85738;SDS011;76182;41.498;22.100;2024-01-30T13:26:31;3.45;;;2.05;;
85738;SDS011;76182;41.498;22.100;2024-01-30T13:28:57;6.53;;;2.22;;
85738;SDS011;76182;41.498;22.100;2024-01-30T13:31:23;23.70;;;4.32;;
85738;SDS011;76182;41.498;22.100;2024-01-30T13:33:48;3.72;;;2.25;;
85738;SDS011;76182;41.498;22.100;2024-01-30T13:36:14;5.70;;;2.47;;
85738;SDS011;76182;41.498;22.100;2024-01-30T13:38:40;4.25;;;2.28;;
85738;SDS011;76182;41.498;22.100;2024-01-30T13:41:05;4.75;;;2.33;;
85738;SDS011;76182;41.498;22.100;2024-01-30T13:43:31;5.18;;;2.20;;
85738;SDS011;76182;41.498;22.100;2024-01-30T13:45:56;5.85;;;2.17;;
85738;SDS011;76182;41.498;22.100;2024-01-30T13:48:22;6.70;;;3.60;;
85738;SDS011;76182;41.498;22.100;2024-01-30T13:50:48;5.88;;;1.98;;
85738;SDS011;76182;41.498;22.100;2024-01-30T13:53:13;6.32;;;2.55;;
85738;SDS011;76182;41.498;22.100;2024-01-30T13:55:39;7.90;;;2.63;;
85738;SDS011;76182;41.498;22.100;2024-01-30T13:58:05;8.25;;;3.00;;
85738;SDS011;76182;41.498;22.100;2024-01-30T14:00:31;5.60;;;2.10;;
85738;SDS011;76182;41.498;22.100;2024-01-30T14:02:57;10.20;;;2.38;;
85738;SDS011;76182;41.498;22.100;2024-01-30T14:05:24;4.10;;;2.42;;
85738;SDS011;76182;41.498;22.100;2024-01-30T14:07:53;6.32;;;2.22;;
85738;SDS011;76182;41.498;22.100;2024-01-30T14:10:19;4.13;;;2.53;;
85738;SDS011;76182;41.498;22.100;2024-01-30T14:12:45;15.57;;;3.88;;
85738;SDS011;76182;41.498;22.100;2024-01-30T14:15:10;7.30;;;2.65;;
85738;SDS011;76182;41.498;22.100;2024-01-30T14:17:37;7.38;;;3.05;;
85738;SDS011;76182;41.498;22.100;2024-01-30T14:20:03;6.95;;;2.20;;
85738;SDS011;76182;41.498;22.100;2024-01-30T14:22:30;9.20;;;3.03;;
85738;SDS011;76182;41.498;22.100;2024-01-30T14:24:56;6.88;;;2.55;;
85738;SDS011;76182;41.498;22.100;2024-01-30T14:27:21;10.52;;;2.40;;
85738;SDS011;76182;41.498;22.100;2024-01-30T14:29:47;14.25;;;4.13;;
85738;SDS011;76182;41.498;22.100;2024-01-30T14:32:13;7.78;;;2.60;;
85738;SDS011;76182;41.498;22.100;2024-01-30T14:34:38;9.00;;;2.95;;
85738;SDS011;76182;41.498;22.100;2024-01-30T14:37:04;5.45;;;2.75;;
85738;SDS011;76182;41.498;22.100;2024-01-30T14:39:30;9.70;;;2.53;;
85738;SDS011;76182;41.498;22.100;2024-01-30T14:41:55;7.47;;;2.22;;
85738;SDS011;76182;41.498;22.100;2024-01-30T14:44:21;7.32;;;2.45;;
85738;SDS011;76182;41.498;22.100;2024-01-30T14:46:46;5.75;;;3.00;;
85738;SDS011;76182;41.498;22.100;2024-01-30T14:49:12;10.05;;;3.53;;
85738;SDS011;76182;41.498;22.100;2024-01-30T14:51:37;5.22;;;2.40;;
85738;SDS011;76182;41.498;22.100;2024-01-30T14:54:03;4.10;;;2.58;;
85738;SDS011;76182;41.498;22.100;2024-01-30T14:56:28;6.22;;;2.35;;
85738;SDS011;76182;41.498;22.100;2024-01-30T14:58:54;12.60;;;3.30;;
85738;SDS011;76182;41.498;22.100;2024-01-30T15:01:21;5.82;;;2.70;;
85738;SDS011;76182;41.498;22.100;2024-01-30T15:03:46;9.55;;;2.58;;
85738;SDS011;76182;41.498;22.100;2024-01-30T15:06:12;10.25;;;3.13;;
85738;SDS011;76182;41.498;22.100;2024-01-30T15:08:38;9.50;;;3.00;;
85738;SDS011;76182;41.498;22.100;2024-01-30T15:11:03;3.53;;;2.45;;
85738;SDS011;76182;41.498;22.100;2024-01-30T15:13:30;8.57;;;2.50;;
85738;SDS011;76182;41.498;22.100;2024-01-30T15:15:55;48.45;;;5.60;;
85738;SDS011;76182;41.498;22.100;2024-01-30T15:18:21;11.68;;;3.08;;
85738;SDS011;76182;41.498;22.100;2024-01-30T15:20:46;10.68;;;3.35;;
85738;SDS011;76182;41.498;22.100;2024-01-30T15:23:12;9.50;;;2.90;;
85738;SDS011;76182;41.498;22.100;2024-01-30T15:25:37;11.73;;;2.72;;
85738;SDS011;76182;41.498;22.100;2024-01-30T15:28:03;9.95;;;3.00;;
85738;SDS011;76182;41.498;22.100;2024-01-30T15:30:29;48.80;;;6.07;;
85738;SDS011;76182;41.498;22.100;2024-01-30T15:32:54;6.43;;;2.70;;
85738;SDS011;76182;41.498;22.100;2024-01-30T15:35:20;7.15;;;3.03;;
85738;SDS011;76182;41.498;22.100;2024-01-30T15:37:45;19.20;;;3.92;;
85738;SDS011;76182;41.498;22.100;2024-01-30T15:40:11;21.42;;;4.57;;
85738;SDS011;76182;41.498;22.100;2024-01-30T15:42:37;8.57;;;3.53;;
85738;SDS011;76182;41.498;22.100;2024-01-30T15:45:02;8.68;;;3.67;;
85738;SDS011;76182;41.498;22.100;2024-01-30T15:47:28;15.43;;;3.67;;
85738;SDS011;76182;41.498;22.100;2024-01-30T15:49:54;7.25;;;3.58;;
85738;SDS011;76182;41.498;22.100;2024-01-30T15:52:19;29.33;;;4.82;;
85738;SDS011;76182;41.498;22.100;2024-01-30T15:54:45;16.23;;;3.50;;
85738;SDS011;76182;41.498;22.100;2024-01-30T15:57:12;5.18;;;3.25;;
85738;SDS011;76182;41.498;22.100;2024-01-30T15:59:37;6.88;;;2.90;;
85738;SDS011;76182;41.498;22.100;2024-01-30T16:02:03;9.55;;;3.95;;
85738;SDS011;76182;41.498;22.100;2024-01-30T16:04:28;12.15;;;3.65;;
85738;SDS011;76182;41.498;22.100;2024-01-30T16:06:54;11.68;;;3.95;;
85738;SDS011;76182;41.498;22.100;2024-01-30T16:09:20;9.77;;;3.50;;
85738;SDS011;76182;41.498;22.100;2024-01-30T16:11:48;6.97;;;3.42;;
85738;SDS011;76182;41.498;22.100;2024-01-30T16:14:13;13.90;;;3.97;;
85738;SDS011;76182;41.498;22.100;2024-01-30T16:16:39;10.05;;;4.40;;
85738;SDS011;76182;41.498;22.100;2024-01-30T16:19:05;5.85;;;3.20;;
85738;SDS011;76182;41.498;22.100;2024-01-30T16:21:30;7.53;;;3.17;;
85738;SDS011;76182;41.498;22.100;2024-01-30T16:23:56;9.90;;;3.80;;
85738;SDS011;76182;41.498;22.100;2024-01-30T16:26:21;7.88;;;3.40;;
85738;SDS011;76182;41.498;22.100;2024-01-30T16:28:47;7.80;;;3.70;;
85738;SDS011;76182;41.498;22.100;2024-01-30T16:31:12;7.07;;;3.95;;
85738;SDS011;76182;41.498;22.100;2024-01-30T16:36:13;5.93;;;3.20;;
85738;SDS011;76182;41.498;22.100;2024-01-30T16:38:39;7.97;;;3.70;;
85738;SDS011;76182;41.498;22.100;2024-01-30T16:41:05;6.60;;;3.85;;
85738;SDS011;76182;41.498;22.100;2024-01-30T16:43:31;6.78;;;4.00;;
85738;SDS011;76182;41.498;22.100;2024-01-30T16:45:56;10.70;;;5.47;;
85738;SDS011;76182;41.498;22.100;2024-01-30T16:48:22;7.22;;;5.05;;
85738;SDS011;76182;41.498;22.100;2024-01-30T16:50:47;7.90;;;4.13;;
85738;SDS011;76182;41.498;22.100;2024-01-30T16:53:14;8.10;;;3.78;;
85738;SDS011;76182;41.498;22.100;2024-01-30T16:55:40;9.30;;;4.25;;
85738;SDS011;76182;41.498;22.100;2024-01-30T16:58:05;10.68;;;4.85;;
85738;SDS011;76182;41.498;22.100;2024-01-30T17:00:33;7.30;;;4.10;;
85738;SDS011;76182;41.498;22.100;2024-01-30T17:02:59;13.70;;;4.72;;
85738;SDS011;76182;41.498;22.100;2024-01-30T17:05:24;7.47;;;4.80;;
85738;SDS011;76182;41.498;22.100;2024-01-30T17:07:51;15.85;;;5.45;;
85738;SDS011;76182;41.498;22.100;2024-01-30T17:10:16;18.90;;;6.40;;
85738;SDS011;76182;41.498;22.100;2024-01-30T17:12:43;8.27;;;4.65;;
85738;SDS011;76182;41.498;22.100;2024-01-30T17:15:09;16.27;;;5.38;;
85738;SDS011;76182;41.498;22.100;2024-01-30T17:17:34;7.60;;;4.85;;
85738;SDS011;76182;41.498;22.100;2024-01-30T17:20:00;8.38;;;4.00;;
85738;SDS011;76182;41.498;22.100;2024-01-30T17:22:25;11.18;;;5.20;;
85738;SDS011;76182;41.498;22.100;2024-01-30T17:24:52;12.60;;;6.05;;
85738;SDS011;76182;41.498;22.100;2024-01-30T17:27:18;11.95;;;6.55;;
85738;SDS011;76182;41.498;22.100;2024-01-30T17:29:44;11.23;;;6.32;;
85738;SDS011;76182;41.498;22.100;2024-01-30T17:32:10;13.68;;;5.22;;
85738;SDS011;76182;41.498;22.100;2024-01-30T17:34:35;11.05;;;5.47;;
85738;SDS011;76182;41.498;22.100;2024-01-30T17:37:01;10.80;;;5.15;;
85738;SDS011;76182;41.498;22.100;2024-01-30T17:39:26;7.82;;;4.93;;
85738;SDS011;76182;41.498;22.100;2024-01-30T17:41:52;11.07;;;5.10;;
85738;SDS011;76182;41.498;22.100;2024-01-30T17:44:17;9.85;;;4.82;;
85738;SDS011;76182;41.498;22.100;2024-01-30T17:46:45;11.00;;;4.68;;
85738;SDS011;76182;41.498;22.100;2024-01-30T17:49:12;8.20;;;5.03;;
85738;SDS011;76182;41.498;22.100;2024-01-30T17:51:38;10.18;;;4.60;;
85738;SDS011;76182;41.498;22.100;2024-01-30T17:54:04;9.77;;;4.93;;
85738;SDS011;76182;41.498;22.100;2024-01-30T17:56:30;14.77;;;4.55;;
85738;SDS011;76182;41.498;22.100;2024-01-30T17:58:55;16.15;;;5.47;;
85738;SDS011;76182;41.498;22.100;2024-01-30T18:01:21;15.52;;;5.47;;
85738;SDS011;76182;41.498;22.100;2024-01-30T18:03:47;19.83;;;4.97;;
85738;SDS011;76182;41.498;22.100;2024-01-30T18:06:13;16.05;;;5.43;;
85738;SDS011;76182;41.498;22.100;2024-01-30T18:08:42;17.25;;;5.10;;
85738;SDS011;76182;41.498;22.100;2024-01-30T18:11:08;15.60;;;4.97;;
85738;SDS011;76182;41.498;22.100;2024-01-30T18:13:34;21.67;;;5.93;;
85738;SDS011;76182;41.498;22.100;2024-01-30T18:15:59;23.55;;;5.88;;
85738;SDS011;76182;41.498;22.100;2024-01-30T18:18:25;17.95;;;6.45;;
85738;SDS011;76182;41.498;22.100;2024-01-30T18:20:51;22.23;;;6.35;;
85738;SDS011;76182;41.498;22.100;2024-01-30T18:23:17;30.52;;;6.20;;
85738;SDS011;76182;41.498;22.100;2024-01-30T18:25:42;23.70;;;5.95;;
85738;SDS011;76182;41.498;22.100;2024-01-30T18:28:08;31.85;;;7.47;;
85738;SDS011;76182;41.498;22.100;2024-01-30T18:30:34;8.93;;;5.03;;
85738;SDS011;76182;41.498;22.100;2024-01-30T18:32:59;16.13;;;5.25;;
85738;SDS011;76182;41.498;22.100;2024-01-30T18:35:25;16.08;;;5.50;;
85738;SDS011;76182;41.498;22.100;2024-01-30T18:37:51;14.98;;;5.88;;
85738;SDS011;76182;41.498;22.100;2024-01-30T18:40:16;14.20;;;6.20;;
85738;SDS011;76182;41.498;22.100;2024-01-30T18:42:41;12.52;;;5.53;;
85738;SDS011;76182;41.498;22.100;2024-01-30T18:45:07;23.40;;;7.82;;
85738;SDS011;76182;41.498;22.100;2024-01-30T18:47:33;20.02;;;9.48;;
85738;SDS011;76182;41.498;22.100;2024-01-30T18:49:59;42.28;;;21.48;;
85738;SDS011;76182;41.498;22.100;2024-01-30T18:52:25;38.63;;;20.17;;
85738;SDS011;76182;41.498;22.100;2024-01-30T18:54:50;36.20;;;19.30;;
85738;SDS011;76182;41.498;22.100;2024-01-30T18:57:17;33.40;;;17.45;;
85738;SDS011;76182;41.498;22.100;2024-01-30T18:59:42;29.70;;;15.63;;
85738;SDS011;76182;41.498;22.100;2024-01-30T19:02:07;30.58;;;16.30;;
85738;SDS011;76182;41.498;22.100;2024-01-30T19:04:33;30.45;;;14.73;;
85738;SDS011;76182;41.498;22.100;2024-01-30T19:06:58;31.02;;;14.90;;
85738;SDS011;76182;41.498;22.100;2024-01-30T19:11:51;25.48;;;13.35;;
85738;SDS011;76182;41.498;22.100;2024-01-30T19:16:42;34.40;;;17.35;;
85738;SDS011;76182;41.498;22.100;2024-01-30T19:21:33;51.10;;;24.02;;
85738;SDS011;76182;41.498;22.100;2024-01-30T19:24:00;49.55;;;24.67;;
85738;SDS011;76182;41.498;22.100;2024-01-30T19:26:27;40.55;;;18.00;;
85738;SDS011;76182;41.498;22.100;2024-01-30T19:31:17;31.90;;;14.53;;
85738;SDS011;76182;41.498;22.100;2024-01-30T19:33:43;36.25;;;17.10;;
85738;SDS011;76182;41.498;22.100;2024-01-30T19:38:34;28.15;;;14.52;;
85738;SDS011;76182;41.498;22.100;2024-01-30T19:41:00;24.42;;;11.35;;
85738;SDS011;76182;41.498;22.100;2024-01-30T19:43:25;18.52;;;8.10;;
85738;SDS011;76182;41.498;22.100;2024-01-30T19:45:52;14.18;;;7.13;;
85738;SDS011;76182;41.498;22.100;2024-01-30T19:50:43;13.30;;;6.80;;
85738;SDS011;76182;41.498;22.100;2024-01-30T19:55:34;10.43;;;5.47;;
85738;SDS011;76182;41.498;22.100;2024-01-30T20:00:26;8.65;;;3.97;;
85738;SDS011;76182;41.498;22.100;2024-01-30T20:07:42;10.45;;;5.00;;
85738;SDS011;76182;41.498;22.100;2024-01-30T20:10:08;11.10;;;6.15;;
85738;SDS011;76182;41.498;22.100;2024-01-30T20:12:34;11.40;;;6.55;;
85738;SDS011;76182;41.498;22.100;2024-01-30T20:15:00;11.82;;;5.65;;
85738;SDS011;76182;41.498;22.100;2024-01-30T20:17:25;10.25;;;5.65;;
85738;SDS011;76182;41.498;22.100;2024-01-30T20:19:51;7.05;;;4.22;;
85738;SDS011;76182;41.498;22.100;2024-01-30T20:22:18;7.82;;;4.75;;
85738;SDS011;76182;41.498;22.100;2024-01-30T20:24:44;8.07;;;4.05;;
85738;SDS011;76182;41.498;22.100;2024-01-30T20:32:01;12.90;;;6.53;;
85738;SDS011;76182;41.498;22.100;2024-01-30T20:34:27;13.40;;;7.13;;
85738;SDS011;76182;41.498;22.100;2024-01-30T20:36:54;11.82;;;7.13;;
85738;SDS011;76182;41.498;22.100;2024-01-30T20:41:45;13.17;;;7.20;;
85738;SDS011;76182;41.498;22.100;2024-01-30T20:44:12;12.55;;;6.50;;
85738;SDS011;76182;41.498;22.100;2024-01-30T20:46:40;26.80;;;6.20;;
85738;SDS011;76182;41.498;22.100;2024-01-30T20:51:31;16.25;;;5.97;;
85738;SDS011;76182;41.498;22.100;2024-01-30T20:56:22;11.43;;;5.90;;
85738;SDS011;76182;41.498;22.100;2024-01-30T21:01:12;17.00;;;7.00;;
85738;SDS011;76182;41.498;22.100;2024-01-30T21:06:04;15.27;;;8.05;;
85738;SDS011;76182;41.498;22.100;2024-01-30T21:08:31;20.15;;;8.27;;
85738;SDS011;76182;41.498;22.100;2024-01-30T21:13:24;14.10;;;7.28;;
85738;SDS011;76182;41.498;22.100;2024-01-30T21:18:15;20.70;;;9.17;;
85738;SDS011;76182;41.498;22.100;2024-01-30T21:23:06;19.70;;;9.53;;
85738;SDS011;76182;41.498;22.100;2024-01-30T21:25:31;19.83;;;10.13;;
85738;SDS011;76182;41.498;22.100;2024-01-30T21:30:22;23.60;;;10.25;;
85738;SDS011;76182;41.498;22.100;2024-01-30T21:32:47;22.52;;;10.43;;
85738;SDS011;76182;41.498;22.100;2024-01-30T21:37:38;17.53;;;8.53;;
85738;SDS011;76182;41.498;22.100;2024-01-30T21:40:05;22.85;;;10.35;;
85738;SDS011;76182;41.498;22.100;2024-01-30T21:42:32;19.83;;;9.98;;
85738;SDS011;76182;41.498;22.100;2024-01-30T21:44:57;16.58;;;9.13;;
85738;SDS011;76182;41.498;22.100;2024-01-30T21:49:48;16.60;;;8.27;;
85738;SDS011;76182;41.498;22.100;2024-01-30T21:52:15;20.10;;;8.15;;
85738;SDS011;76182;41.498;22.100;2024-01-30T21:54:40;20.38;;;8.43;;
85738;SDS011;76182;41.498;22.100;2024-01-30T21:57:06;15.02;;;8.07;;
85738;SDS011;76182;41.498;22.100;2024-01-30T21:59:32;19.65;;;7.97;;
85738;SDS011;76182;41.498;22.100;2024-01-30T22:04:23;16.77;;;7.03;;
85738;SDS011;76182;41.498;22.100;2024-01-30T22:06:51;20.10;;;9.52;;
85738;SDS011;76182;41.498;22.100;2024-01-30T22:09:16;15.60;;;8.68;;
85738;SDS011;76182;41.498;22.100;2024-01-30T22:11:42;20.92;;;9.82;;
85738;SDS011;76182;41.498;22.100;2024-01-30T22:14:07;18.13;;;8.80;;
85738;SDS011;76182;41.498;22.100;2024-01-30T22:18:58;23.73;;;8.27;;
85738;SDS011;76182;41.498;22.100;2024-01-30T22:21:24;23.25;;;9.70;;
85738;SDS011;76182;41.498;22.100;2024-01-30T22:23:50;18.23;;;8.30;;
85738;SDS011;76182;41.498;22.100;2024-01-30T22:26:16;20.27;;;8.20;;
85738;SDS011;76182;41.498;22.100;2024-01-30T22:28:41;15.82;;;8.18;;
85738;SDS011;76182;41.498;22.100;2024-01-30T22:31:07;22.95;;;8.73;;
85738;SDS011;76182;41.498;22.100;2024-01-30T22:33:32;17.52;;;8.68;;
85738;SDS011;76182;41.498;22.100;2024-01-30T22:35:58;31.60;;;8.70;;
85738;SDS011;76182;41.498;22.100;2024-01-30T22:40:50;15.80;;;7.47;;
85738;SDS011;76182;41.498;22.100;2024-01-30T22:43:15;20.23;;;8.93;;
85738;SDS011;76182;41.498;22.100;2024-01-30T22:48:06;15.23;;;6.97;;
85738;SDS011;76182;41.498;22.100;2024-01-30T22:50:32;25.35;;;9.30;;
85738;SDS011;76182;41.498;22.100;2024-01-30T22:52:57;17.17;;;8.05;;
85738;SDS011;76182;41.498;22.100;2024-01-30T22:55:23;17.00;;;7.70;;
85738;SDS011;76182;41.498;22.100;2024-01-30T22:57:48;22.02;;;7.45;;
85738;SDS011;76182;41.498;22.100;2024-01-30T23:00:14;15.30;;;8.73;;
85738;SDS011;76182;41.498;22.100;2024-01-30T23:02:43;14.88;;;7.75;;
85738;SDS011;76182;41.498;22.100;2024-01-30T23:05:09;20.27;;;7.82;;
85738;SDS011;76182;41.498;22.100;2024-01-30T23:07:35;14.25;;;7.75;;
85738;SDS011;76182;41.498;22.100;2024-01-30T23:10:08;19.05;;;8.68;;
85738;SDS011;76182;41.498;22.100;2024-01-30T23:12:34;21.92;;;9.77;;
85738;SDS011;76182;41.498;22.100;2024-01-30T23:15:03;18.25;;;8.27;;
85738;SDS011;76182;41.498;22.100;2024-01-30T23:17:29;18.23;;;8.57;;
85738;SDS011;76182;41.498;22.100;2024-01-30T23:19:57;17.13;;;8.43;;
85738;SDS011;76182;41.498;22.100;2024-01-30T23:22:23;19.02;;;8.55;;
85738;SDS011;76182;41.498;22.100;2024-01-30T23:24:48;22.65;;;8.40;;
85738;SDS011;76182;41.498;22.100;2024-01-30T23:27:14;17.83;;;9.02;;
85738;SDS011;76182;41.498;22.100;2024-01-30T23:29:39;19.75;;;10.15;;
85738;SDS011;76182;41.498;22.100;2024-01-30T23:32:05;16.67;;;8.60;;
85738;SDS011;76182;41.498;22.100;2024-01-30T23:34:31;20.77;;;8.95;;
85738;SDS011;76182;41.498;22.100;2024-01-30T23:36:56;19.33;;;9.23;;
85738;SDS011;76182;41.498;22.100;2024-01-30T23:39:22;19.65;;;9.38;;
85738;SDS011;76182;41.498;22.100;2024-01-30T23:41:47;20.52;;;9.70;;
85738;SDS011;76182;41.498;22.100;2024-01-30T23:44:13;19.13;;;10.98;;
85738;SDS011;76182;41.498;22.100;2024-01-30T23:46:39;18.88;;;9.15;;
85738;SDS011;76182;41.498;22.100;2024-01-30T23:49:04;20.67;;;8.40;;
85738;SDS011;76182;41.498;22.100;2024-01-30T23:51:30;17.13;;;9.48;;
85738;SDS011;76182;41.498;22.100;2024-01-30T23:53:55;17.08;;;8.70;;
85738;SDS011;76182;41.498;22.100;2024-01-30T23:56:21;16.58;;;9.02;;
85738;SDS011;76182;41.498;22.100;2024-01-30T23:58:46;16.55;;;9.00;;
